Paradise Valley, Nevada Weather observations

Data are for 10 minute period ending at time listed.
 Day   Time   Solar   Ave.   Ave.  Ave.  Vector  Max.   Baro.   Total    
  of    of     Rad.   Air    Rel.  Wind   Wind   Wind  Press.  Precip.   
Year   Day            Temp.  Hum.  Speed  Dir.   Gust                    
2014   (PST)  Kw/m2    F      %     mph   deg.    mph    mb.     in.     
-------------------------------------------------------------------------
 351    0:00   0.00   10.6    64    3.5   261     5.5   862.1    0.00 
 351    0:10   0.00    9.7    62    2.5   270     4.5   862.0    0.00 
 351    0:20   0.00    9.7    65    3.5   280     5.3   862.0    0.00 
 351    0:30   0.00   10.0    69    4.5   302     5.6   862.0    0.00 
 351    0:40   0.00   11.1    73    3.3   325     5.8   861.9    0.00 
 351    0:50   0.00   10.1    75    5.2   320     6.9   861.8    0.00 
 351    1:00   0.00    9.4    81    4.3   320     7.9   861.9    0.00 
 351    1:10   0.00   10.5    90    4.1   339     7.5   861.8    0.00 
 351    1:20   0.00    9.4    89    6.6   332     8.5   861.8    0.00 
 351    1:30   0.00    8.4    90    4.9   342     6.8   861.8    0.00 
 351    1:40   0.00    8.3    92    3.9     7     6.1   861.8    0.00 
 351    1:50   0.00    8.3    83    2.4   350     4.6   861.9    0.00 
 351    2:00   0.00    8.1    91    3.6   321     4.9   862.0    0.00 
 351    2:10   0.00    7.7    90    3.2   351     4.5   862.0    0.00 
 351    2:20   0.00    6.2    97    2.8    63     4.7   862.1    0.00 
 351    2:30   0.00    7.6    94    3.8   158     7.0   862.2    0.00 
 351    2:40   0.00    7.9    92    5.2   183     6.3   862.2    0.00 
 351    2:50   0.00    8.9    90    4.8   181     6.4   862.2    0.00 
 351    3:00   0.00    9.9    92    4.6   205     5.6   862.2    0.00 
 351    3:10   0.00    8.3    91    3.7   218     5.0   862.2    0.00 
 351    3:20   0.00    7.9    92    3.6   242     5.9   862.2    0.00 
 351    3:30   0.00    7.2    99    5.1   284     5.8   862.0    0.00 
 351    3:40   0.00    6.8    98    2.9   296     4.4   862.0    0.00 
 351    3:50   0.00    6.1    90    1.6   336     2.6   861.9    0.00 
 351    4:00   0.00    6.9    88    1.4    56     2.4   861.9    0.00 
 351    4:10   0.00    6.3    72    0.4    42     2.6   862.0    0.00 
 351    4:20   0.00    7.4    78    1.9   104     3.5   862.1    0.00 
 351    4:30   0.00    7.8    92    0.4   111     0.9   862.0    0.00 
 351    4:40   0.00    7.1    89    0.2   111     0.8   861.9    0.00 
 351    4:50   0.00    6.1    95    2.3   233     3.4   861.9    0.00 
 351    5:00   0.00    5.4    99    0.6   233     2.0   862.0    0.00 
 351    5:10   0.00    5.1   100    1.3   248     4.2   862.1    0.00 
 351    5:20   0.00    5.6   100    0.4   258     1.8   862.2    0.00 
 351    5:30   0.00    5.5   100    0.1   267     1.3   862.2    0.00 
 351    5:40   0.00    4.8   100    2.2   267     3.4   862.2    0.00 
 351    5:50   0.00    3.9    99    2.9   267     3.7   862.3    0.00 
 351    6:00   0.00    3.7   100    2.9   268     4.1   862.3    0.00 
 351    6:10   0.00    4.6    95    1.4   275     2.0   862.3    0.00 
 351    6:20   0.00    4.9    94    2.9   273     4.2   862.5    0.00 
 351    6:30   0.00    5.0    91    2.1   294     2.9   862.6    0.00 
 351    6:40   0.00    5.7    92    1.0   324     2.6   862.6    0.00 
 351    6:50   0.00    5.2    91    0.5   345     3.1   862.7    0.00 
 351    7:00   0.00    3.0    91    3.0   119     3.7   862.7    0.00 
 351    7:10   0.00    5.1    89    1.2   235     2.6   862.8    0.00 
 351    7:20   0.01    4.5    90    0.5   256     1.5   862.8    0.00 
 351    7:30   0.03    4.4    97    1.1   256     2.2   862.9    0.00 
 351    7:40   0.07    4.6   106    0.5   297     2.2   862.9    0.00 
 351    7:50   0.11    2.3   126    0.7    84     3.0   863.1    0.00 
 351    8:00   0.12   -0.2   134    0.7    64     2.4   863.1    0.00 
 351    8:10   0.14   -2.7   148    1.8    39     3.4   863.2    0.00 
 351    8:20   0.17   -1.6   146    1.5     9     2.0   863.3    0.00 
 351    8:30   0.14   -1.5   144    1.3   344     2.0   863.4    0.00 
 351    8:40   0.09    0.4   131    1.7     5     2.2   863.5    0.00 
 351    8:50   0.07    0.1   126    2.5    38     3.2   863.5    0.00 
 351    9:00   0.12   -1.9   146    0.5    57     2.2   863.7    0.00 
 351    9:10   0.13   -7.4   168    0.5    80     1.5   863.7    0.00 
 351    9:20   0.17  -10.1   174    1.0    68     2.2   863.8    0.00 
 351    9:30   0.34  -12.2   179    1.4    71     2.8   863.9    0.00 
 351    9:40   0.45  -15.7   185    0.8    11     1.8   863.9    0.00 
 351    9:50   0.51  -16.6   185    1.1   103     2.6   864.0    0.00 
 351   10:00   0.41  -16.3   187    1.2    91     3.1   863.9    0.00 
 351   10:10   0.48  -12.3   188    2.4   111     4.2   863.9    0.00 
 351   10:20   0.47   -8.0   188    3.4   140     7.0   863.9    0.00 
 351   10:30   0.46   -8.4   189    4.6   209     7.9   863.8    0.00 
 351   10:40   0.22   -6.0   191    4.1   184     6.9   863.7    0.00 
 351   10:50   0.35   -5.9   192    5.2   180     6.9   863.6    0.00 
 351   11:00   0.46   -5.7   192    3.9   163     6.1   863.5    0.00 
 351   11:10   0.48   -4.1   192    3.3   157     5.2   863.5    0.00 
 351   11:20   0.35   -2.5   194    4.1   149     6.8   863.3    0.00 
 351   11:30   0.34   -1.7   192    4.5   148     6.5   863.2    0.00 
 351   11:40   0.30   -0.8   193    4.7   166     8.3   863.1    0.00 
 351   11:50   0.32   -0.3   192    4.0   167     6.6   863.0    0.00 
 351   12:00   0.41    0.7   194    4.2   170     8.6   862.8    0.00 
 351   12:10   0.30    2.6   194    5.8   165     9.3   862.8    0.00 
 351   12:20   0.29    3.1   193    4.9   168     8.8   862.7    0.00 
 351   12:30   0.30    3.4   193    4.8   183     6.7   862.6    0.00 
 351   12:40   0.24    4.2   194    3.9   167     7.9   862.5    0.00 
 351   12:50   0.22    4.0   195    4.4   156     7.7   862.4    0.00 
 351   13:00   0.24    3.2   195    4.9   152     8.5   862.3    0.00 
 351   13:10   0.18    3.4   195    5.9   163     8.3   862.4    0.00 
 351   13:20   0.19    3.4   195    5.7   157     7.6   862.3    0.00 
 351   13:30   0.21    2.9   194    5.5   156     8.1   862.3    0.00 
 351   13:40   0.20    3.1   196    3.9   134     6.1   862.2    0.00 
 351   13:50   0.19    3.0   195    4.2   120     6.2   862.2    0.00 
 351   14:00   0.19    2.6   195    4.4   151     7.1   862.2    0.00 
 351   14:10   0.23    2.7   194    2.6   141     5.0   862.3    0.00 
 351   14:20   0.26    3.3   194    3.7   128     6.6   862.3    0.00 
 351   14:30   0.17    3.9   193    4.5   137     7.1   862.3    0.00 
 351   14:40   0.16    4.3   194    5.2   139     7.7   862.4    0.00 
 351   14:50   0.15    4.0   193    5.1   146     7.0   862.6    0.00 
 351   15:00   0.18    3.9   195    5.3   142     7.6   862.6    0.00 
 351   15:10   0.12    4.2   194    6.5   135     9.1   862.7    0.00 
 351   15:20   0.06    3.6   194    6.9   140    10.3   862.8    0.00 
 351   15:30   0.04    1.6   194    5.1   154     7.5   862.9    0.00 
 351   15:40   0.06    1.0   193    5.3   146     7.5   863.0    0.00 
 351   15:50   0.05   -0.4   192    5.2   151     7.0   863.1    0.00 
 351   16:00   0.03   -6.7   190    4.6   151     6.2   863.2    0.00 
 351   16:10   0.01   -9.3   190    3.2   152     4.2   863.2    0.00 
 351   16:20   0.01  -11.6   189    3.2   206     4.7   863.3    0.00 
 351   16:30   0.00  -12.4   190    4.3   230     5.3   863.3    0.00 
 351   16:40   0.00  -13.2   190    4.5   239     6.0   863.4    0.00 
 351   16:50   0.00  -13.3   190    4.4   234     5.5   863.6    0.00 
 351   17:00   0.00  -14.5   188    5.0   240     5.8   863.6    0.00 
 351   17:10   0.00  -14.1   188    4.1   250     4.9   863.7    0.00 
 351   17:20   0.00  -13.7   189    4.2   244     5.5   863.7    0.00 
 351   17:30   0.00  -13.6   189    4.3   229     5.8   863.7    0.00 
 351   17:40   0.00  -13.4   188    4.7   225     6.4   863.9    0.00 
 351   17:50   0.00  -12.7   189    4.7   221     6.2   863.9    0.00 
 351   18:00   0.00  -11.8   189    5.4   207     7.1   864.0    0.00 
 351   18:10   0.00  -11.6   189    5.5   214     6.0   864.0    0.00 
 351   18:20   0.00  -11.5   189    6.0   228     6.8   864.1    0.00 
 351   18:30   0.00  -12.2   189    5.9   221     6.8   864.2    0.00 
 351   18:40   0.00  -13.5   189    5.8   207     7.7   864.3    0.00 
 351   18:50   0.00  -14.3   188    4.1   183     6.0   864.2    0.00 
 351   19:00   0.00  -14.7   189    3.0   191     4.7   864.3    0.00 
 351   19:10   0.00  -13.7   189    3.2   245     5.0   864.4    0.00 
 351   19:20   0.00  -13.6   189    3.0   172     4.1   864.4    0.00 
 351   19:30   0.00  -10.6   185    2.2   104     3.6   864.5    0.00 
 351   19:40   0.00   -7.1   184    0.6   231     2.8   864.6    0.00 
 351   19:50   0.00   -8.1   188    2.1   182     2.8   864.6    0.00 
 351   20:00   0.00   -6.9   183    2.2    13     4.2   864.7    0.00 
 351   20:10   0.00   -5.4   175    2.5   349     4.2   864.8    0.00 
 351   20:20   0.00   -5.1   174    2.3   326     3.4   864.8    0.00 
 351   20:30   0.00   -5.0   174    2.8   308     3.5   864.9    0.00 
 351   20:40   0.00   -4.7   174    2.2   298     2.6   864.9    0.00 
 351   20:50   0.00   -4.3   172    2.7   259     3.2   865.0    0.00 
 351   21:00   0.00   -2.9   169    0.9   260     2.9   865.1    0.00 
 351   21:10   0.00   -2.3   163    0.6   323     1.8   865.1    0.00 
 351   21:20   0.00   -2.3   163    0.1   324     0.9   865.1    0.00 
 351   21:30   0.00   -3.3   163    0.3   324     0.9   865.2    0.00 
 351   21:40   0.00   -2.7   164    0.7   212     2.2   865.2    0.00 

Return to Paradise Valley graphs page.


Western Regional Climate Center,wrcc@dri.edu